Time;durP1;ratioP1;P1;durP2;ratioP2;P2;SDS_P1;SDS_P2;PMS_P1;PMS_P2;Temp;Humidity;BMP_temperature;BMP_pressure;BME280_temperature;BME280_humidity;BME280_pressure;Samples;Min_cycle;Max_cycle;Signal;HPM_P1;HPM_P2
2023/02/18 00:04:49;;;;;;;31.23;21.67;;;11.30;99.90;;;;;;2616215;39;20457;-74
2023/02/18 00:10:40;;;;;;;30.00;21.00;;;11.30;99.90;;;;;;2615936;54;20142;-72
2023/02/18 00:16:30;;;;;;;21.10;15.70;;;11.40;99.90;;;;;;2616006;54;20391;-73
2023/02/18 00:22:17;;;;;;;27.67;20.23;;;11.40;99.90;;;;;;2615612;54;20463;-71
2023/02/18 00:28:05;;;;;;;26.37;16.37;;;11.40;99.90;;;;;;2616261;54;20633;-74
2023/02/18 00:33:53;;;;;;;24.87;18.50;;;11.30;99.90;;;;;;2615617;54;20111;-73
2023/02/18 00:36:56;;;;;;;22.70;17.37;;;11.30;99.90;;;;;;2615859;54;20396;-73
2023/02/18 00:43:42;;;;;;;26.90;19.47;;;11.30;99.90;;;;;;2615577;54;20410;-72
2023/02/18 00:49:30;;;;;;;20.87;15.80;;;11.30;99.90;;;;;;2615916;54;20464;-73
2023/02/18 00:55:17;;;;;;;26.40;17.73;;;11.30;99.90;;;;;;2615875;54;20916;-73
2023/02/18 01:01:07;;;;;;;30.17;20.23;;;11.20;99.90;;;;;;2615875;54;20130;-72
2023/02/18 01:06:54;;;;;;;32.33;21.73;;;11.20;99.90;;;;;;2615782;54;20924;-73
2023/02/18 01:12:42;;;;;;;34.50;23.63;;;11.20;99.90;;;;;;2615870;54;20114;-74
2023/02/18 01:18:30;;;;;;;42.90;28.83;;;11.10;99.90;;;;;;2615842;54;20141;-72
2023/02/18 01:24:18;;;;;;;40.77;29.47;;;11.10;99.90;;;;;;2615747;54;20953;-73
2023/02/18 01:30:07;;;;;;;43.20;28.60;;;11.20;99.90;;;;;;2615955;54;20127;-72
2023/02/18 01:35:55;;;;;;;45.87;30.13;;;11.20;99.90;;;;;;2616009;54;20382;-74
2023/02/18 01:41:54;;;;;;;41.03;27.07;;;11.20;99.90;;;;;;2614319;54;20134;-72
2023/02/18 01:47:41;;;;;;;42.30;24.30;;;11.20;99.90;;;;;;2614372;54;20220;-73
2023/02/18 01:53:36;;;;;;;38.17;22.50;;;11.20;99.90;;;;;;2614162;54;20118;-73
2023/02/18 01:59:48;;;;;;;43.33;26.87;;;11.20;99.90;;;;;;2614314;54;20358;-73
2023/02/18 02:05:36;;;;;;;41.23;26.70;;;11.20;99.90;;;;;;2614302;54;20378;-72
2023/02/18 02:15:19;;;;;;;38.97;22.60;;;11.20;99.90;;;;;;2613836;54;20417;-73
2023/02/18 02:38:01;;;;;;;23.87;16.00;;;11.20;99.90;;;;;;2615660;54;20379;-73
2023/02/18 02:50:44;;;;;;;21.93;15.20;;;11.20;99.90;;;;;;2615905;54;20407;-73
2023/02/18 02:56:32;;;;;;;28.00;17.17;;;11.20;99.90;;;;;;2615409;54;20383;-73
2023/02/18 03:02:40;;;;;;;24.07;15.70;;;11.20;99.90;;;;;;2615102;54;20122;-72
2023/02/18 03:15:38;;;;;;;19.10;13.50;;;11.10;99.90;;;;;;2615368;54;20471;-73
2023/02/18 03:27:51;;;;;;;13.90;8.83;;;10.80;99.90;;;;;;2614837;54;20967;-71
2023/02/18 03:33:48;;;;;;;15.63;11.67;;;10.80;99.90;;;;;;2614740;54;20375;-71
2023/02/18 03:43:44;;;;;;;14.80;9.00;;;10.70;99.90;;;;;;2614402;54;20355;-71
2023/02/18 03:49:32;;;;;;;13.13;9.03;;;10.70;99.90;;;;;;2614741;54;20496;-71
2023/02/18 03:55:20;;;;;;;18.20;10.37;;;10.70;99.90;;;;;;2615220;54;20673;-74
2023/02/18 04:01:08;;;;;;;17.90;11.30;;;10.70;99.90;;;;;;2615274;54;20198;-73
2023/02/18 04:06:55;;;;;;;18.90;11.70;;;10.70;99.90;;;;;;2615101;54;20118;-73
2023/02/18 04:12:43;;;;;;;19.73;12.10;;;10.80;99.90;;;;;;2615151;54;20130;-72
2023/02/18 04:18:31;;;;;;;13.03;7.70;;;10.70;99.90;;;;;;2616632;31;20608;-73
2023/02/18 04:24:19;;;;;;;22.33;9.57;;;10.80;99.90;;;;;;2615904;54;20251;-72
2023/02/18 04:30:07;;;;;;;16.57;10.13;;;10.80;99.90;;;;;;2615823;54;20176;-72
2023/02/18 04:35:55;;;;;;;18.30;10.70;;;10.80;99.90;;;;;;2615913;54;20367;-73
2023/02/18 04:39:12;;;;;;;17.40;10.47;;;10.80;99.90;;;;;;2616020;54;20423;-73
2023/02/18 04:41:38;;;;;;;24.10;10.80;;;10.80;99.90;;;;;;2615801;54;20660;-73
2023/02/18 04:47:26;;;;;;;10.93;6.40;;;10.80;99.90;;;;;;2615780;54;20166;-73
2023/02/18 04:53:13;;;;;;;10.33;6.97;;;10.80;99.90;;;;;;2615796;54;20396;-72
2023/02/18 04:59:01;;;;;;;6.10;4.37;;;10.60;99.90;;;;;;2615727;54;20151;-74
2023/02/18 05:04:48;;;;;;;5.80;3.87;;;10.40;99.90;;;;;;2616096;54;20258;-73
2023/02/18 05:10:37;;;;;;;5.37;2.83;;;10.40;99.90;;;;;;2615304;46;20173;-73
2023/02/18 05:16:25;;;;;;;2.90;1.80;;;10.30;99.90;;;;;;2615721;54;20367;-72
2023/02/18 05:22:13;;;;;;;3.20;2.10;;;10.20;99.90;;;;;;2615283;54;20270;-73
2023/02/18 05:28:01;;;;;;;3.50;1.87;;;10.30;99.90;;;;;;2615455;54;20127;-72
2023/02/18 05:33:48;;;;;;;2.80;1.90;;;10.20;99.90;;;;;;2615412;54;20143;-72
2023/02/18 05:49:43;;;;;;;2.60;1.83;;;10.30;99.90;;;;;;2616022;54;20365;-73
2023/02/18 05:55:32;;;;;;;4.63;2.27;;;10.20;99.90;;;;;;2615537;54;20122;-72
2023/02/18 06:01:19;;;;;;;3.70;2.83;;;10.20;99.90;;;;;;2615442;54;20386;-73
2023/02/18 06:07:07;;;;;;;2.03;1.60;;;10.30;99.90;;;;;;2615356;54;20131;-74
2023/02/18 06:12:55;;;;;;;2.83;2.03;;;10.30;99.90;;;;;;2615610;54;20162;-73
2023/02/18 06:18:42;;;;;;;3.20;2.40;;;10.30;99.90;;;;;;2615252;54;20169;-73
2023/02/18 06:24:30;;;;;;;4.17;3.30;;;10.30;99.90;;;;;;2615461;54;20253;-73
2023/02/18 06:30:18;;;;;;;4.17;3.00;;;10.20;99.90;;;;;;2615534;54;20652;-73
2023/02/18 06:33:21;;;;;;;3.93;3.10;;;10.20;99.90;;;;;;2614959;54;20423;-73
2023/02/18 06:35:57;;;;;;;2.90;2.23;;;10.20;99.90;;;;;;2614787;47;20154;-73
2023/02/18 06:39:13;;;;;;;3.73;2.23;;;10.20;99.90;;;;;;2614811;47;20430;-72
2023/02/18 06:41:39;;;;;;;3.90;2.80;;;10.20;99.90;;;;;;2615423;54;20424;-73
2023/02/18 06:47:27;;;;;;;4.47;2.60;;;10.20;99.90;;;;;;2615580;39;20766;-72
2023/02/18 06:53:18;;;;;;;3.30;2.30;;;10.10;99.90;;;;;;2615012;54;20167;-72
2023/02/18 06:59:07;;;;;;;6.03;3.43;;;10.10;99.90;;;;;;2615444;46;20406;-72
2023/02/18 07:04:54;;;;;;;5.93;3.13;;;10.00;99.90;;;;;;2615156;54;20448;-73
2023/02/18 07:10:42;;;;;;;6.33;4.23;;;9.90;99.90;;;;;;2615426;54;20138;-72
2023/02/18 07:16:30;;;;;;;5.73;3.90;;;9.90;99.90;;;;;;2615225;46;20142;-72
2023/02/18 07:22:17;;;;;;;6.17;3.13;;;9.90;99.90;;;;;;2614973;54;20127;-72
2023/02/18 07:28:05;;;;;;;6.90;4.87;;;9.90;99.90;;;;;;2615231;54;20130;-73
2023/02/18 07:33:53;;;;;;;4.20;3.20;;;9.90;99.90;;;;;;2615349;54;20122;-72
2023/02/18 07:43:45;;;;;;;7.90;5.70;;;9.90;99.90;;;;;;2615244;54;20384;-74
2023/02/18 07:49:34;;;;;;;8.93;8.03;;;10.00;99.90;;;;;;2616247;54;20398;-72
2023/02/18 07:55:21;;;;;;;7.63;6.10;;;10.20;99.90;;;;;;2616024;54;20390;-73
2023/02/18 08:01:13;;;;;;;6.90;5.77;;;10.30;99.90;;;;;;2616310;54;20126;-73
2023/02/18 08:07:00;;;;;;;4.90;4.40;;;10.40;99.90;;;;;;2616009;54;20386;-73
2023/02/18 08:12:48;;;;;;;6.60;5.70;;;10.40;99.90;;;;;;2615779;54;20616;-73
2023/02/18 08:18:35;;;;;;;7.63;5.23;;;10.30;99.90;;;;;;2616098;54;20717;-73
2023/02/18 08:24:23;;;;;;;5.93;4.07;;;10.20;99.90;;;;;;2615900;54;20667;-73
2023/02/18 08:30:12;;;;;;;3.43;2.73;;;10.30;99.90;;;;;;2615849;54;20125;-72
2023/02/18 08:35:59;;;;;;;4.27;3.83;;;10.20;99.90;;;;;;2616338;39;20950;-72
2023/02/18 08:39:15;;;;;;;5.63;4.47;;;10.30;99.90;;;;;;2615544;54;20375;-72
2023/02/18 08:41:41;;;;;;;4.20;3.80;;;10.40;99.90;;;;;;2615161;39;20552;-73
2023/02/18 08:47:29;;;;;;;6.40;5.80;;;10.50;99.90;;;;;;2615829;54;20151;-73
2023/02/18 08:53:16;;;;;;;5.00;4.23;;;10.40;99.90;;;;;;2615458;54;20898;-73
2023/02/18 08:59:04;;;;;;;7.07;5.40;;;10.20;99.90;;;;;;2615675;54;20342;-72
2023/02/18 09:04:52;;;;;;;17.33;9.43;;;10.20;99.90;;;;;;2615334;54;20111;-74
2023/02/18 09:10:40;;;;;;;7.40;5.50;;;10.00;99.90;;;;;;2615359;54;20134;-73
2023/02/18 09:16:28;;;;;;;5.23;4.10;;;10.10;99.90;;;;;;2615361;54;20115;-73
2023/02/18 09:22:16;;;;;;;17.80;5.90;;;10.10;99.90;;;;;;2615318;54;20509;-73
2023/02/18 09:28:04;;;;;;;9.13;3.80;;;10.20;99.90;;;;;;2615140;54;20435;-73
2023/02/18 09:33:59;;;;;;;7.50;4.67;;;10.20;99.90;;;;;;2615275;54;20627;-73
2023/02/18 09:43:52;;;;;;;7.10;4.13;;;10.20;99.90;;;;;;2615313;54;20398;-74
2023/02/18 09:55:56;;;;;;;11.57;6.80;;;10.20;99.90;;;;;;2615488;54;20889;-73
2023/02/18 10:01:46;;;;;;;13.73;4.90;;;10.20;99.90;;;;;;2615732;54;20391;-73
2023/02/18 10:07:35;;;;;;;11.00;5.87;;;10.10;99.90;;;;;;2615195;54;20945;-73
2023/02/18 10:13:30;;;;;;;9.60;6.80;;;9.80;99.90;;;;;;2615108;54;20835;-72
2023/02/18 10:19:23;;;;;;;13.80;5.30;;;10.00;99.90;;;;;;2614991;54;20406;-72
2023/02/18 10:44:36;;;;;;;9.07;6.73;;;9.90;99.90;;;;;;2613725;54;20570;-73
2023/02/18 10:47:29;;;;;;;13.53;7.50;;;9.80;99.90;;;;;;2613728;47;20438;-73
2023/02/18 10:53:37;;;;;;;9.20;6.50;;;9.60;99.90;;;;;;2613700;54;20846;-74
2023/02/18 10:59:31;;;;;;;8.03;6.80;;;9.60;99.90;;;;;;2613822;54;20364;-73
2023/02/18 11:05:26;;;;;;;19.40;5.67;;;9.60;99.90;;;;;;2613834;54;20482;-73
2023/02/18 11:14:50;;;;;;;24.10;8.27;;;9.60;99.90;;;;;;2614793;54;20387;-73
2023/02/18 11:20:38;;;;;;;11.40;9.47;;;9.50;99.90;;;;;;2614942;54;20384;-73
2023/02/18 11:26:32;;;;;;;13.67;9.30;;;9.40;99.90;;;;;;2615584;54;20411;-72
2023/02/18 11:32:20;;;;;;;21.97;13.53;;;9.30;99.90;;;;;;2615584;54;20403;-73
2023/02/18 11:54:39;;;;;;;14.97;10.37;;;9.40;99.90;;;;;;2615629;54;20422;-73
2023/02/18 12:00:47;;;;;;;10.83;9.17;;;9.40;99.90;;;;;;2615366;46;20141;-73
2023/02/18 12:33:00;;;;;;;13.90;11.20;;;9.50;99.90;;;;;;2613911;54;21110;-73
2023/02/18 12:38:50;;;;;;;14.43;11.73;;;9.60;99.90;;;;;;2614272;54;20418;-72
2023/02/18 12:48:17;;;;;;;13.90;10.63;;;9.60;99.90;;;;;;2613980;54;20403;-73
2023/02/18 13:48:04;;;;;;;22.37;15.20;;;9.90;99.90;;;;;;2613714;54;21214;-72
2023/02/18 14:00:24;;;;;;;20.20;14.30;;;9.90;99.90;;;;;;2615355;47;20807;-73
2023/02/18 14:06:24;;;;;;;24.93;18.80;;;10.00;99.90;;;;;;2615469;39;20495;-73
2023/02/18 14:23:07;;;;;;;30.77;19.30;;;10.00;99.90;;;;;;2615127;54;20411;-73
2023/02/18 14:29:18;;;;;;;28.63;19.93;;;10.00;99.90;;;;;;2615373;54;20387;-73
2023/02/18 14:41:45;;;;;;;25.83;19.13;;;10.20;99.90;;;;;;2615261;54;20403;-73
2023/02/18 14:48:11;;;;;;;30.73;22.10;;;10.20;99.90;;;;;;2615018;54;20390;-73
2023/02/18 14:54:05;;;;;;;30.07;21.40;;;10.20;99.90;;;;;;2615137;54;20375;-73
2023/02/18 14:59:58;;;;;;;23.70;18.50;;;10.40;99.90;;;;;;2615230;54;20747;-73
2023/02/18 15:05:47;;;;;;;32.63;19.63;;;10.40;99.90;;;;;;2615108;54;20415;-73
2023/02/18 15:18:02;;;;;;;35.03;22.67;;;10.50;99.90;;;;;;2615258;54;20410;-73
2023/02/18 15:23:50;;;;;;;28.33;20.57;;;10.40;99.90;;;;;;2615898;39;20745;-72
2023/02/18 15:29:38;;;;;;;32.53;22.50;;;10.40;99.90;;;;;;2615321;54;20412;-73
2023/02/18 15:35:31;;;;;;;31.43;22.20;;;10.40;99.90;;;;;;2615003;54;20366;-73
2023/02/18 15:41:21;;;;;;;32.83;21.03;;;10.30;99.90;;;;;;2614993;54;20358;-73
2023/02/18 15:50:33;;;;;;;32.27;21.03;;;10.40;99.90;;;;;;2615036;54;20514;-73
2023/02/18 16:09:11;;;;;;;28.00;16.83;;;10.50;99.90;;;;;;2615186;54;20957;-74
2023/02/18 16:15:00;;;;;;;25.63;13.90;;;10.50;99.90;;;;;;2615759;39;20743;-74
2023/02/18 16:27:20;;;;;;;22.27;15.50;;;10.50;99.90;;;;;;2613839;54;20355;-73
2023/02/18 16:33:07;;;;;;;22.80;15.63;;;10.50;99.90;;;;;;2614492;39;20567;-73
2023/02/18 16:38:57;;;;;;;27.07;15.30;;;10.60;99.90;;;;;;2613984;46;20392;-74
2023/02/18 16:44:46;;;;;;;20.97;14.37;;;10.50;99.90;;;;;;2614027;54;20403;-73
2023/02/18 16:50:33;;;;;;;25.43;16.13;;;10.60;99.90;;;;;;2613914;54;20358;-73
2023/02/18 16:56:26;;;;;;;22.50;15.13;;;10.60;99.90;;;;;;2614084;54;20816;-73
2023/02/18 17:02:19;;;;;;;21.23;15.33;;;10.60;99.90;;;;;;2615406;54;20384;-74
2023/02/18 17:08:13;;;;;;;19.57;15.80;;;10.70;99.90;;;;;;2615613;54;20387;-74
2023/02/18 17:14:03;;;;;;;22.33;13.03;;;10.70;99.90;;;;;;2615447;54;20940;-72
2023/02/18 17:19:51;;;;;;;28.33;16.47;;;10.70;99.90;;;;;;2615444;54;20411;-71
2023/02/18 17:25:40;;;;;;;30.90;17.60;;;10.70;99.90;;;;;;2615336;54;20130;-72
2023/02/18 17:31:30;;;;;;;19.67;14.17;;;10.70;99.90;;;;;;2615349;54;20965;-72
2023/02/18 17:37:18;;;;;;;22.13;14.60;;;10.80;99.90;;;;;;2615474;54;20909;-72
2023/02/18 17:43:05;;;;;;;28.57;17.13;;;10.80;99.90;;;;;;2615394;54;20139;-73
2023/02/18 17:46:08;;;;;;;37.10;18.53;;;10.70;99.90;;;;;;2615450;54;20985;-73
2023/02/18 17:48:34;;;;;;;21.87;16.47;;;10.80;99.90;;;;;;2615245;54;20150;-73
2023/02/18 17:54:23;;;;;;;17.93;14.40;;;10.70;99.90;;;;;;2615121;54;20847;-73
2023/02/18 18:06:27;;;;;;;33.53;17.83;;;10.50;99.90;;;;;;2615613;54;20379;-73
2023/02/18 18:12:16;;;;;;;24.97;16.30;;;10.50;99.90;;;;;;2615418;54;20158;-73
2023/02/18 18:18:04;;;;;;;29.33;18.40;;;10.40;99.90;;;;;;2615174;54;20507;-73
2023/02/18 18:23:51;;;;;;;28.27;20.27;;;10.30;99.90;;;;;;2615273;46;20426;-72
2023/02/18 18:29:39;;;;;;;31.30;23.53;;;10.30;99.90;;;;;;2615110;54;20679;-74
2023/02/18 18:35:30;;;;;;;38.33;26.63;;;10.30;99.90;;;;;;2615157;54;20146;-73
2023/02/18 18:41:20;;;;;;;35.30;20.70;;;10.40;99.90;;;;;;2614841;54;20427;-74
2023/02/18 18:50:38;;;;;;;32.20;17.97;;;10.40;99.90;;;;;;2615022;54;20503;-74
2023/02/18 18:56:25;;;;;;;31.63;22.97;;;10.50;99.90;;;;;;2615301;46;20374;-74
2023/02/18 19:02:15;;;;;;;34.30;23.27;;;10.50;99.90;;;;;;2615160;47;20142;-74
2023/02/18 19:08:04;;;;;;;31.00;21.60;;;10.50;99.90;;;;;;2615399;54;20359;-74
2023/02/18 19:13:52;;;;;;;37.50;27.40;;;10.50;99.90;;;;;;2616252;39;20793;-73
2023/02/18 19:19:40;;;;;;;34.63;24.83;;;10.50;99.90;;;;;;2615646;54;20122;-74
2023/02/18 19:25:28;;;;;;;34.37;25.40;;;10.50;99.90;;;;;;2615624;54;20142;-73
2023/02/18 19:31:15;;;;;;;30.80;20.77;;;10.50;99.90;;;;;;2615589;39;21132;-73
2023/02/18 19:37:03;;;;;;;29.97;21.57;;;10.50;99.90;;;;;;2615273;54;20189;-74
2023/02/18 19:42:51;;;;;;;33.07;21.97;;;10.50;99.90;;;;;;2615115;54;20224;-75
2023/02/18 19:46:05;;;;;;;28.77;21.57;;;10.50;99.90;;;;;;2615828;54;20415;-74
2023/02/18 19:48:30;;;;;;;30.03;19.50;;;10.50;99.90;;;;;;2615677;54;20435;-74
2023/02/18 19:54:18;;;;;;;36.13;24.27;;;10.60;99.90;;;;;;2615656;54;20122;-73
2023/02/18 20:00:07;;;;;;;44.60;28.90;;;10.60;99.90;;;;;;2615583;54;20139;-73
2023/02/18 20:05:55;;;;;;;31.33;21.33;;;10.60;99.90;;;;;;2615843;54;20935;-74
2023/02/18 20:11:43;;;;;;;47.63;29.87;;;10.60;99.90;;;;;;2615345;54;20152;-72
2023/02/18 20:17:31;;;;;;;32.80;20.37;;;10.70;99.90;;;;;;2615874;54;20126;-73
2023/02/18 20:23:19;;;;;;;35.07;24.33;;;10.60;99.90;;;;;;2615620;54;20175;-73
2023/02/18 20:29:06;;;;;;;38.13;22.23;;;10.60;99.90;;;;;;2615405;54;20162;-73
2023/02/18 20:34:55;;;;;;;27.80;18.30;;;10.60;99.90;;;;;;2615511;54;20146;-73
2023/02/18 20:40:43;;;;;;;30.73;21.70;;;10.60;99.90;;;;;;2615292;54;20396;-73
2023/02/18 20:50:36;;;;;;;22.67;17.30;;;10.70;99.90;;;;;;2615166;54;20845;-73
2023/02/18 20:56:24;;;;;;;28.03;22.23;;;10.70;99.90;;;;;;2615587;54;20403;-73
2023/02/18 21:02:12;;;;;;;33.97;19.47;;;10.70;99.90;;;;;;2615325;54;20130;-73
2023/02/18 21:08:00;;;;;;;35.70;21.53;;;10.70;99.90;;;;;;2615512;54;21254;-74
2023/02/18 21:13:50;;;;;;;36.50;23.83;;;10.60;99.90;;;;;;2615883;39;20836;-73
2023/02/18 21:19:38;;;;;;;38.93;23.30;;;10.60;99.90;;;;;;2615517;54;20386;-73
2023/02/18 21:25:26;;;;;;;31.63;20.57;;;10.50;99.90;;;;;;2615255;54;20899;-73
2023/02/18 21:31:26;;;;;;;30.27;17.13;;;10.50;99.90;;;;;;2615116;54;20138;-73
2023/02/18 21:37:13;;;;;;;34.63;21.77;;;10.50;99.90;;;;;;2615430;54;20680;-73
2023/02/18 21:43:01;;;;;;;38.37;24.57;;;10.50;99.90;;;;;;2615440;54;20134;-73
2023/02/18 21:46:07;;;;;;;40.10;26.30;;;10.50;99.90;;;;;;2615269;54;20380;-73
2023/02/18 21:54:43;;;;;;;37.53;23.97;;;10.30;99.90;;;;;;2615879;54;20395;-73
2023/02/18 22:00:31;;;;;;;35.60;24.87;;;10.30;99.90;;;;;;2615325;54;20948;-73
2023/02/18 22:06:18;;;;;;;39.10;26.77;;;10.30;99.90;;;;;;2615246;54;20166;-74
2023/02/18 22:12:07;;;;;;;37.67;20.70;;;10.30;99.90;;;;;;2615406;54;20170;-74
2023/02/18 22:17:54;;;;;;;32.33;19.60;;;10.20;99.90;;;;;;2615446;54;20496;-73
2023/02/18 22:23:42;;;;;;;34.37;20.30;;;10.10;99.90;;;;;;2615278;54;20123;-73
2023/02/18 22:29:30;;;;;;;27.60;19.10;;;10.20;99.90;;;;;;2615362;54;20154;-73
2023/02/18 22:35:17;;;;;;;35.43;23.60;;;10.20;99.90;;;;;;2615225;54;20394;-73
2023/02/18 22:41:07;;;;;;;38.97;22.50;;;10.20;99.90;;;;;;2615040;54;20115;-74
2023/02/18 22:57:20;;;;;;;39.10;23.57;;;10.40;99.90;;;;;;2614144;39;20936;-73
2023/02/18 23:03:07;;;;;;;32.70;16.97;;;10.40;99.90;;;;;;2614302;46;20250;-74
2023/02/18 23:08:55;;;;;;;28.27;18.90;;;10.40;99.90;;;;;;2613605;54;20118;-73
2023/02/18 23:14:42;;;;;;;27.90;16.90;;;10.40;99.90;;;;;;2614264;54;20379;-74
2023/02/18 23:26:35;;;;;;;21.47;14.70;;;10.20;99.90;;;;;;2615199;54;20507;-73
2023/02/18 23:32:26;;;;;;;23.07;14.93;;;10.10;99.90;;;;;;2614831;54;20122;-74
2023/02/18 23:38:14;;;;;;;25.57;16.70;;;10.10;99.90;;;;;;2614733;54;20419;-73
2023/02/18 23:44:06;;;;;;;27.23;18.20;;;10.10;99.90;;;;;;2615365;54;20158;-73
2023/02/18 23:49:54;;;;;;;31.57;21.50;;;10.30;99.90;;;;;;2614697;54;20430;-74
2023/02/18 23:55:42;;;;;;;16.57;11.00;;;10.30;99.90;;;;;;2614919;54;20154;-74
